Time;durP1;ratioP1;P1;durP2;ratioP2;P2;SDS_P1;SDS_P2;PMS_P1;PMS_P2;Temp;Humidity;BMP_temperature;BMP_pressure;BME280_temperature;BME280_humidity;BME280_pressure;Samples;Min_cycle;Max_cycle;Signal;HPM_P1;HPM_P2
2022/07/25 00:00:34;;;;;;;;;;;;;;;;;;5073207;28;770;-70
2022/07/25 00:03:01;;;;;;;;;;;;;;;;;;5072690;28;964;-71
2022/07/25 00:05:27;;;;;;;;;;;;;;;;;;5073022;28;1062;-71
2022/07/25 00:07:54;;;;;;;;;;;;;;;;;;5072505;28;1277;-71
2022/07/25 00:10:20;;;;;;;;;;;;;;;;;;5072638;28;743;-71
2022/07/25 00:12:46;;;;;;;;;;;;;;;;;;5072434;28;1091;-70
2022/07/25 00:15:12;;;;;;;;;;;;;;;;;;5072837;28;1922;-70
2022/07/25 00:17:39;;;;;;;;;;;;;;;;;;5072485;28;1376;-70
2022/07/25 00:20:07;;;;;;;;;;;;;;;;;;5072761;28;711;-71
2022/07/25 00:22:33;;;;;;;;;;;;;;;;;;5072401;28;1106;-71
2022/07/25 00:25:00;;;;;;;;;;;;;;;;;;5072740;28;1119;-71
2022/07/25 00:27:26;;;;;;;;;;;;;;;;;;5072230;28;1280;-70
2022/07/25 00:29:52;;;;;;;;;;;;;;;;;;5072456;28;811;-71
2022/07/25 00:32:18;;;;;;;;;;;;;;;;;;5072315;28;1075;-71
2022/07/25 00:34:44;;;;;;;;;;;;;;;;;;5072561;28;901;-71
2022/07/25 00:37:12;;;;;;;;;;;;;;;;;;5072389;28;1914;-71
2022/07/25 00:39:38;;;;;;;;;;;;;;;;;;5054286;28;1402;-71
2022/07/25 00:42:04;;;;;;;;;;;;;;;;;;5072240;28;754;-71
2022/07/25 00:44:31;;;;;;;;;;;;;;;;;;5072040;28;1230;-70
2022/07/25 00:46:57;;;;;;;;;;;;;;;;;;5072095;28;952;-71
2022/07/25 00:49:24;;;;;;;;;;;;;;;;;;5072039;28;1288;-70
2022/07/25 00:51:50;;;;;;;;;;;;;;;;;;5071942;28;1075;-71
2022/07/25 00:54:18;;;;;;;;;;;;;;;;;;5072310;28;1098;-70
2022/07/25 00:56:44;;;;;;;;;;;;;;;;;;5072086;28;1967;-71
2022/07/25 00:59:10;;;;;;;;;;;;;;;;;;5072083;28;1282;-71
2022/07/25 01:01:36;;;;;;;;;;;;;;;;;;5071557;28;1071;-71
2022/07/25 01:04:03;;;;;;;;;;;;;;;;;;5071926;28;1029;-71
2022/07/25 01:06:29;;;;;;;;;;;;;;;;;;5071198;28;1471;-71
2022/07/25 01:08:55;;;;;;;;;;;;;;;;;;5071749;28;1483;-70
2022/07/25 01:11:23;;;;;;;;;;;;;;;;;;5071151;28;889;-70
2022/07/25 01:13:49;;;;;;;;;;;;;;;;;;5071928;28;783;-70
2022/07/25 01:16:15;;;;;;;;;;;;;;;;;;5072027;28;1910;-70
2022/07/25 01:18:42;;;;;;;;;;;;;;;;;;5071938;28;1416;-70
2022/07/25 01:21:09;;;;;;;;;;;;;;;;;;5071647;28;1126;-70
2022/07/25 01:23:35;;;;;;;;;;;;;;;;;;5071861;28;909;-70
2022/07/25 01:26:01;;;;;;;;;;;;;;;;;;5071875;28;1059;-71
2022/07/25 01:28:28;;;;;;;;;;;;;;;;;;5071548;28;1359;-71
2022/07/25 01:30:54;;;;;;;;;;;;;;;;;;5073890;28;1240;-71
2022/07/25 01:33:21;;;;;;;;;;;;;;;;;;5075831;28;845;-71
2022/07/25 01:35:47;;;;;;;;;;;;;;;;;;5075956;28;1965;-71
2022/07/25 01:38:15;;;;;;;;;;;;;;;;;;5075750;28;1304;-70
2022/07/25 01:40:42;;;;;;;;;;;;;;;;;;5075814;28;1067;-71
2022/07/25 01:43:08;;;;;;;;;;;;;;;;;;5075142;28;873;-70
2022/07/25 01:45:34;;;;;;;;;;;;;;;;;;5075678;28;1090;-70
2022/07/25 01:48:00;;;;;;;;;;;;;;;;;;5075851;28;1383;-70
2022/07/25 01:50:26;;;;;;;;;;;;;;;;;;5075610;28;1118;-70
2022/07/25 01:52:53;;;;;;;;;;;;;;;;;;5075214;28;897;-71
2022/07/25 01:55:20;;;;;;;;;;;;;;;;;;5075535;28;1914;-70
2022/07/25 01:57:46;;;;;;;;;;;;;;;;;;5075531;28;1294;-71
2022/07/25 02:00:13;;;;;;;;;;;;;;;;;;5075103;28;1022;-71
2022/07/25 02:02:39;;;;;;;;;;;;;;;;;;5075349;28;667;-71
2022/07/25 02:05:05;;;;;;;;;;;;;;;;;;5075377;28;1071;-70
2022/07/25 02:07:32;;;;;;;;;;;;;;;;;;5075255;28;1262;-71
2022/07/25 02:09:58;;;;;;;;;;;;;;;;;;5084178;28;2005;-72
2022/07/25 02:12:25;;;;;;;;;;;;;;;;;;5094775;28;1539;-71
2022/07/25 02:14:52;;;;;;;;;;;;;;;;;;5095152;28;889;-72
2022/07/25 02:17:19;;;;;;;;;;;;;;;;;;5094665;28;1905;-71
2022/07/25 02:19:45;;;;;;;;;;;;;;;;;;5095419;28;1070;-71
2022/07/25 02:22:11;;;;;;;;;;;;;;;;;;5095112;28;1087;-71
2022/07/25 02:24:37;;;;;;;;;;;;;;;;;;5094881;28;1063;-71
2022/07/25 02:27:04;;;;;;;;;;;;;;;;;;5095232;28;1118;-72
2022/07/25 02:29:32;;;;;;;;;;;;;;;;;;5095169;28;1371;-71
2022/07/25 02:31:58;;;;;;;;;;;;;;;;;;5094743;28;1078;-71
2022/07/25 02:34:24;;;;;;;;;;;;;;;;;;5094994;28;869;-71
2022/07/25 02:36:50;;;;;;;;;;;;;;;;;;5094568;28;1906;-71
2022/07/25 02:39:16;;;;;;;;;;;;;;;;;;5094827;28;1287;-70
2022/07/25 02:41:42;;;;;;;;;;;;;;;;;;5094389;28;1059;-71
2022/07/25 02:44:09;;;;;;;;;;;;;;;;;;5094587;28;1082;-71
2022/07/25 02:46:36;;;;;;;;;;;;;;;;;;5076608;28;1352;-70
2022/07/25 02:49:03;;;;;;;;;;;;;;;;;;5094751;28;1292;-71
2022/07/25 02:51:29;;;;;;;;;;;;;;;;;;5094117;28;940;-70
2022/07/25 02:53:56;;;;;;;;;;;;;;;;;;5094384;28;1122;-71
2022/07/25 02:56:22;;;;;;;;;;;;;;;;;;5094638;28;1910;-71
2022/07/25 02:58:48;;;;;;;;;;;;;;;;;;5094337;28;1289;-71
2022/07/25 03:01:14;;;;;;;;;;;;;;;;;;5094660;28;925;-71
2022/07/25 03:03:42;;;;;;;;;;;;;;;;;;5083495;28;1518;-71
2022/07/25 03:06:08;;;;;;;;;;;;;;;;;;5074176;28;1130;-71
2022/07/25 03:08:34;;;;;;;;;;;;;;;;;;5056085;28;1409;-71
2022/07/25 03:11:00;;;;;;;;;;;;;;;;;;5074402;28;971;-71
2022/07/25 03:13:26;;;;;;;;;;;;;;;;;;5073250;28;1090;-71
2022/07/25 03:15:52;;;;;;;;;;;;;;;;;;5074079;28;1910;-71
2022/07/25 03:18:19;;;;;;;;;;;;;;;;;;5073929;28;1381;-71
2022/07/25 03:20:46;;;;;;;;;;;;;;;;;;5074262;28;1134;-71
2022/07/25 03:23:12;;;;;;;;;;;;;;;;;;5073694;28;834;-71
2022/07/25 03:25:38;;;;;;;;;;;;;;;;;;5073729;28;984;-71
2022/07/25 03:28:05;;;;;;;;;;;;;;;;;;5073888;28;1288;-70
2022/07/25 03:30:31;;;;;;;;;;;;;;;;;;5073476;28;803;-71
2022/07/25 03:32:57;;;;;;;;;;;;;;;;;;5073596;28;1078;-71
2022/07/25 03:35:24;;;;;;;;;;;;;;;;;;5073676;28;923;-70
2022/07/25 03:37:52;;;;;;;;;;;;;;;;;;5073479;28;1969;-71
2022/07/25 03:40:18;;;;;;;;;;;;;;;;;;5073495;28;1347;-71
2022/07/25 03:42:44;;;;;;;;;;;;;;;;;;5073171;28;1106;-70
2022/07/25 03:45:11;;;;;;;;;;;;;;;;;;5055835;28;1464;-71
2022/07/25 03:47:37;;;;;;;;;;;;;;;;;;5073179;28;1274;-71
2022/07/25 03:50:03;;;;;;;;;;;;;;;;;;5073290;28;1138;-71
2022/07/25 03:52:30;;;;;;;;;;;;;;;;;;5072522;28;908;-70
2022/07/25 03:54:57;;;;;;;;;;;;;;;;;;5073228;28;1063;-71
2022/07/25 03:57:23;;;;;;;;;;;;;;;;;;5074836;28;1926;-71
2022/07/25 03:59:49;;;;;;;;;;;;;;;;;;5075781;28;1406;-71
2022/07/25 04:02:16;;;;;;;;;;;;;;;;;;5092463;28;1102;-71
2022/07/25 04:04:42;;;;;;;;;;;;;;;;;;5083581;28;1402;-72
2022/07/25 04:07:08;;;;;;;;;;;;;;;;;;5088310;28;1213;-72
2022/07/25 04:09:34;;;;;;;;;;;;;;;;;;5093197;28;1349;-72
2022/07/25 04:12:02;;;;;;;;;;;;;;;;;;5053029;28;1473;-72
2022/07/25 04:14:28;;;;;;;;;;;;;;;;;;5066006;28;2503;-72
2022/07/25 04:16:54;;;;;;;;;;;;;;;;;;5070225;28;1901;-72
2022/07/25 04:19:20;;;;;;;;;;;;;;;;;;5082784;28;1474;-72
2022/07/25 04:21:46;;;;;;;;;;;;;;;;;;5081796;28;1573;-72
2022/07/25 04:24:12;;;;;;;;;;;;;;;;;;5075261;28;1442;-73
2022/07/25 04:26:39;;;;;;;;;;;;;;;;;;5084272;28;1344;-72
2022/07/25 04:29:06;;;;;;;;;;;;;;;;;;5091775;28;1396;-73
2022/07/25 04:31:32;;;;;;;;;;;;;;;;;;5097534;28;965;-73
2022/07/25 04:33:58;;;;;;;;;;;;;;;;;;5101010;28;1024;-72
2022/07/25 04:36:25;;;;;;;;;;;;;;;;;;5082645;28;1983;-73
2022/07/25 04:38:51;;;;;;;;;;;;;;;;;;5062873;28;1449;-72
2022/07/25 04:41:17;;;;;;;;;;;;;;;;;;5081086;28;1379;-71
2022/07/25 04:43:44;;;;;;;;;;;;;;;;;;5086623;28;1470;-72
2022/07/25 04:46:11;;;;;;;;;;;;;;;;;;5092410;28;1215;-72
2022/07/25 04:48:37;;;;;;;;;;;;;;;;;;5081545;28;1399;-72
2022/07/25 04:51:03;;;;;;;;;;;;;;;;;;5078105;28;1378;-72
2022/07/25 04:53:30;;;;;;;;;;;;;;;;;;5077495;28;1403;-70
2022/07/25 04:55:56;;;;;;;;;;;;;;;;;;5078840;28;1598;-71
2022/07/25 04:58:22;;;;;;;;;;;;;;;;;;5082719;28;1917;-71
2022/07/25 05:00:48;;;;;;;;;;;;;;;;;;5091797;28;1239;-71
2022/07/25 05:03:16;;;;;;;;;;;;;;;;;;5091959;28;900;-72
2022/07/25 05:05:42;;;;;;;;;;;;;;;;;;5091277;28;1121;-72
2022/07/25 05:08:08;;;;;;;;;;;;;;;;;;5074026;28;1367;-72
2022/07/25 05:10:34;;;;;;;;;;;;;;;;;;5073941;28;1285;-72
2022/07/25 05:13:00;;;;;;;;;;;;;;;;;;5077616;28;1517;-73
2022/07/25 05:15:26;;;;;;;;;;;;;;;;;;5071689;28;1173;-72
2022/07/25 05:17:53;;;;;;;;;;;;;;;;;;5064299;28;1926;-71
2022/07/25 05:20:20;;;;;;;;;;;;;;;;;;5067177;28;1354;-72
2022/07/25 05:22:46;;;;;;;;;;;;;;;;;;5062993;28;1457;-72
2022/07/25 05:25:13;;;;;;;;;;;;;;;;;;5068662;28;1447;-72
2022/07/25 05:27:39;;;;;;;;;;;;;;;;;;5074730;28;1379;-72
2022/07/25 05:30:06;;;;;;;;;;;;;;;;;;5074898;28;2932;-71
2022/07/25 05:32:32;;;;;;;;;;;;;;;;;;5073590;28;1557;-72
2022/07/25 05:34:58;;;;;;;;;;;;;;;;;;5072561;28;1669;-73
2022/07/25 05:37:26;;;;;;;;;;;;;;;;;;5081831;28;1973;-72
2022/07/25 05:39:52;;;;;;;;;;;;;;;;;;5078815;28;1627;-72
2022/07/25 05:42:18;;;;;;;;;;;;;;;;;;5091168;28;1240;-72
2022/07/25 05:44:44;;;;;;;;;;;;;;;;;;5076489;28;1624;-71
2022/07/25 05:47:11;;;;;;;;;;;;;;;;;;5086459;28;1205;-73
2022/07/25 05:49:37;;;;;;;;;;;;;;;;;;5082727;28;1261;-72
2022/07/25 05:52:04;;;;;;;;;;;;;;;;;;5050930;28;1249;-72
2022/07/25 05:54:31;;;;;;;;;;;;;;;;;;5070158;28;1114;-71
2022/07/25 05:56:57;;;;;;;;;;;;;;;;;;5054870;28;1978;-71
2022/07/25 05:59:23;;;;;;;;;;;;;;;;;;5070750;28;1801;-72
2022/07/25 06:01:50;;;;;;;;;;;;;;;;;;5070170;28;1172;-72
2022/07/25 06:04:16;;;;;;;;;;;;;;;;;;5088258;28;1096;-71
2022/07/25 06:06:42;;;;;;;;;;;;;;;;;;5075139;28;1610;-71
2022/07/25 06:09:08;;;;;;;;;;;;;;;;;;5068772;28;1682;-72
2022/07/25 06:11:36;;;;;;;;;;;;;;;;;;5065799;28;1703;-72
2022/07/25 06:14:02;;;;;;;;;;;;;;;;;;5070935;28;1548;-71
2022/07/25 06:16:28;;;;;;;;;;;;;;;;;;5092186;28;1212;-72
2022/07/25 06:18:54;;;;;;;;;;;;;;;;;;5094938;28;1910;-72
2022/07/25 06:21:20;;;;;;;;;;;;;;;;;;5091641;28;1746;-71
2022/07/25 06:23:46;;;;;;;;;;;;;;;;;;5089354;28;1605;-71
2022/07/25 06:26:13;;;;;;;;;;;;;;;;;;5077456;28;1485;-72
2022/07/25 06:28:40;;;;;;;;;;;;;;;;;;5087244;28;1624;-73
2022/07/25 06:31:07;;;;;;;;;;;;;;;;;;5094593;28;1239;-72
2022/07/25 06:33:33;;;;;;;;;;;;;;;;;;5075776;28;1142;-73
2022/07/25 06:35:59;;;;;;;;;;;;;;;;;;5085019;28;1715;-72
2022/07/25 06:38:26;;;;;;;;;;;;;;;;;;5076527;28;1973;-73
2022/07/25 06:40:52;;;;;;;;;;;;;;;;;;5085262;28;1635;-73
2022/07/25 06:43:18;;;;;;;;;;;;;;;;;;5093331;28;1185;-74
2022/07/25 06:45:46;;;;;;;;;;;;;;;;;;5094533;28;1131;-73
2022/07/25 06:48:12;;;;;;;;;;;;;;;;;;5081741;28;1802;-72
2022/07/25 06:50:39;;;;;;;;;;;;;;;;;;5072274;28;1549;-74
2022/07/25 06:53:05;;;;;;;;;;;;;;;;;;5054356;28;1473;-73
2022/07/25 06:55:31;;;;;;;;;;;;;;;;;;5084650;28;1473;-73
2022/07/25 06:57:57;;;;;;;;;;;;;;;;;;5083432;28;1906;-74
2022/07/25 07:00:23;;;;;;;;;;;;;;;;;;5092568;28;1770;-73
2022/07/25 07:02:52;;;;;;;;;;;;;;;;;;5076680;28;1485;-73
2022/07/25 07:05:18;;;;;;;;;;;;;;;;;;5078282;28;1316;-73
2022/07/25 07:07:45;;;;;;;;;;;;;;;;;;5093730;28;1277;-73
2022/07/25 07:10:11;;;;;;;;;;;;;;;;;;5094058;28;897;-73
2022/07/25 07:12:37;;;;;;;;;;;;;;;;;;5093025;28;1079;-73
2022/07/25 07:15:03;;;;;;;;;;;;;;;;;;5081773;28;1767;-73
2022/07/25 07:17:30;;;;;;;;;;;;;;;;;;5093428;28;1910;-73
2022/07/25 07:19:57;;;;;;;;;;;;;;;;;;5093755;28;1054;-73
2022/07/25 07:22:23;;;;;;;;;;;;;;;;;;5063824;28;1817;-73
2022/07/25 07:24:50;;;;;;;;;;;;;;;;;;5076713;28;1465;-73
2022/07/25 07:27:16;;;;;;;;;;;;;;;;;;5083663;28;1735;-73
2022/07/25 07:29:42;;;;;;;;;;;;;;;;;;5086260;28;1460;-73
2022/07/25 07:32:08;;;;;;;;;;;;;;;;;;5091016;28;1276;-73
2022/07/25 07:34:35;;;;;;;;;;;;;;;;;;5089714;28;1767;-72
2022/07/25 07:37:02;;;;;;;;;;;;;;;;;;5093221;28;1207;-73
2022/07/25 07:39:28;;;;;;;;;;;;;;;;;;5083340;28;1976;-73
2022/07/25 07:41:54;;;;;;;;;;;;;;;;;;5089306;28;1256;-73
2022/07/25 07:44:21;;;;;;;;;;;;;;;;;;5092800;28;1094;-73
2022/07/25 07:46:47;;;;;;;;;;;;;;;;;;5093177;28;1130;-72
2022/07/25 07:49:13;;;;;;;;;;;;;;;;;;5090368;28;1782;-72
2022/07/25 07:51:40;;;;;;;;;;;;;;;;;;5086678;28;1018;-72
2022/07/25 07:56:51;;;;;;;;;;;;;;;;;;5090424;28;1142;-72
2022/07/25 07:59:17;;;;;;;;;;;;;;;;;;5087833;28;1918;-72
2022/07/25 08:01:43;;;;;;;;;;;;;;;;;;5079070;28;1488;-72
2022/07/25 08:04:09;;;;;;;;;;;;;;;;;;5092513;28;1242;-72
2022/07/25 08:06:36;;;;;;;;;;;;;;;;;;5092630;28;1138;-72
2022/07/25 08:12:11;;;;;;;;;;;;;;;;;;5009470;28;1749;-74
2022/07/25 08:14:37;;;;;;;;;;;;;;;;;;4998149;28;1705;-75
2022/07/25 08:17:03;;;;;;;;;;;;;;;;;;5010973;28;1179;-74
2022/07/25 08:19:29;;;;;;;;;;;;;;;;;;5015875;28;1975;-76
2022/07/25 08:21:55;;;;;;;;;;;;;;;;;;5019021;28;1175;-74
2022/07/25 08:24:22;;;;;;;;;;;;;;;;;;5009250;28;1832;-75
2022/07/25 08:26:48;;;;;;;;;;;;;;;;;;5010944;28;1420;-76
2022/07/25 08:29:15;;;;;;;;;;;;;;;;;;5011789;28;1365;-76
2022/07/25 08:31:41;;;;;;;;;;;;;;;;;;5012095;28;1064;-76
2022/07/25 08:34:08;;;;;;;;;;;;;;;;;;5012482;28;1067;-75
2022/07/25 08:36:34;;;;;;;;;;;;;;;;;;5010955;28;1340;-74
2022/07/25 08:39:00;;;;;;;;;;;;;;;;;;5011987;28;1931;-75
2022/07/25 08:41:26;;;;;;;;;;;;;;;;;;5011886;28;1387;-74
2022/07/25 08:43:52;;;;;;;;;;;;;;;;;;5012028;28;1060;-75
2022/07/25 08:46:20;;;;;;;;;;;;;;;;;;5011091;28;1632;-75
2022/07/25 08:48:46;;;;;;;;;;;;;;;;;;5010243;28;1726;-74
2022/07/25 08:51:12;;;;;;;;;;;;;;;;;;5010596;28;1410;-74
2022/07/25 08:53:38;;;;;;;;;;;;;;;;;;5011485;28;1063;-75
2022/07/25 08:56:05;;;;;;;;;;;;;;;;;;5012151;28;878;-75
2022/07/25 08:58:32;;;;;;;;;;;;;;;;;;5011782;28;1910;-75
2022/07/25 09:00:58;;;;;;;;;;;;;;;;;;5008274;28;1832;-76
2022/07/25 09:03:25;;;;;;;;;;;;;;;;;;5009990;28;1680;-76
2022/07/25 09:05:52;;;;;;;;;;;;;;;;;;5011988;28;1175;-75
2022/07/25 09:08:18;;;;;;;;;;;;;;;;;;5007904;28;1784;-75
2022/07/25 09:10:45;;;;;;;;;;;;;;;;;;5011444;28;1453;-75
2022/07/25 09:13:12;;;;;;;;;;;;;;;;;;5011520;28;1092;-76
2022/07/25 09:15:40;;;;;;;;;;;;;;;;;;5011077;28;1073;-76
2022/07/25 09:18:07;;;;;;;;;;;;;;;;;;5010886;28;1974;-76
2022/07/25 09:20:38;;;;;;;;;;;;;;;;;;5010613;28;1785;-76
2022/07/25 09:23:06;;;;;;;;;;;;;;;;;;5011072;28;1143;-76
2022/07/25 09:25:32;;;;;;;;;;;;;;;;;;5011855;28;930;-76
2022/07/25 09:28:08;;;;;;;;;;;;;;;;;;5009107;28;1809;-76
2022/07/25 09:30:35;;;;;;;;;;;;;;;;;;5011423;28;1444;-77
2022/07/25 09:33:01;;;;;;;;;;;;;;;;;;5010459;28;1855;-76
2022/07/25 09:35:32;;;;;;;;;;;;;;;;;;5008935;28;1784;-75
2022/07/25 09:38:07;;;;;;;;;;;;;;;;;;5010912;28;1977;-75
2022/07/25 09:40:34;;;;;;;;;;;;;;;;;;5010202;28;1848;-75
2022/07/25 09:43:00;;;;;;;;;;;;;;;;;;5009909;28;2388;-75
2022/07/25 09:45:26;;;;;;;;;;;;;;;;;;5011454;28;1207;-75
2022/07/25 09:47:53;;;;;;;;;;;;;;;;;;5010663;28;1836;-75
2022/07/25 09:50:20;;;;;;;;;;;;;;;;;;5003269;28;1398;-76
2022/07/25 09:52:46;;;;;;;;;;;;;;;;;;5012846;28;1176;-74
2022/07/25 09:55:15;;;;;;;;;;;;;;;;;;5015853;28;1056;-75
2022/07/25 09:57:41;;;;;;;;;;;;;;;;;;5014450;28;1881;-76
2022/07/25 10:00:08;;;;;;;;;;;;;;;;;;5014905;28;1907;-75
2022/07/25 10:02:41;;;;;;;;;;;;;;;;;;5013834;28;1488;-76
2022/07/25 10:05:09;;;;;;;;;;;;;;;;;;5011529;28;1677;-75
2022/07/25 10:07:36;;;;;;;;;;;;;;;;;;5013791;28;1627;-75
2022/07/25 10:10:03;;;;;;;;;;;;;;;;;;5013408;28;1610;-76
2022/07/25 10:12:30;;;;;;;;;;;;;;;;;;5014579;28;997;-75
2022/07/25 10:15:03;;;;;;;;;;;;;;;;;;5015042;28;1393;-76
2022/07/25 10:17:30;;;;;;;;;;;;;;;;;;5014741;28;1115;-76
2022/07/25 10:19:56;;;;;;;;;;;;;;;;;;4996530;28;1906;-75
2022/07/25 10:22:22;;;;;;;;;;;;;;;;;;5013441;28;1804;-75
2022/07/25 10:24:48;;;;;;;;;;;;;;;;;;5014437;28;1202;-75
2022/07/25 10:27:22;;;;;;;;;;;;;;;;;;5015000;28;1083;-74
2022/07/25 10:29:52;;;;;;;;;;;;;;;;;;5013196;28;1634;-75
2022/07/25 10:32:18;;;;;;;;;;;;;;;;;;5011471;28;1420;-74
2022/07/25 10:34:51;;;;;;;;;;;;;;;;;;5014268;28;1158;-75
2022/07/25 10:37:17;;;;;;;;;;;;;;;;;;5014458;28;1068;-75
2022/07/25 10:39:44;;;;;;;;;;;;;;;;;;5011756;28;1914;-74
2022/07/25 10:42:13;;;;;;;;;;;;;;;;;;5012958;28;1521;-74
2022/07/25 10:44:40;;;;;;;;;;;;;;;;;;5014182;28;1143;-73
2022/07/25 10:47:09;;;;;;;;;;;;;;;;;;5013423;28;1836;-73
2022/07/25 10:49:36;;;;;;;;;;;;;;;;;;5012771;28;1373;-75
2022/07/25 10:52:03;;;;;;;;;;;;;;;;;;5013895;28;1055;-76
2022/07/25 10:54:32;;;;;;;;;;;;;;;;;;5013743;28;1258;-75
2022/07/25 10:56:59;;;;;;;;;;;;;;;;;;5011488;28;1840;-75
2022/07/25 10:59:26;;;;;;;;;;;;;;;;;;5012679;28;1969;-74
2022/07/25 11:01:52;;;;;;;;;;;;;;;;;;5014030;28;1234;-74
2022/07/25 11:04:19;;;;;;;;;;;;;;;;;;5012822;28;846;-74
2022/07/25 11:06:46;;;;;;;;;;;;;;;;;;5009664;28;1777;-76
2022/07/25 11:09:13;;;;;;;;;;;;;;;;;;5011266;28;1428;-75
2022/07/25 11:11:41;;;;;;;;;;;;;;;;;;5013295;28;1800;-75
2022/07/25 11:14:13;;;;;;;;;;;;;;;;;;5012690;28;1515;-76
2022/07/25 11:16:39;;;;;;;;;;;;;;;;;;5012194;28;1685;-75
2022/07/25 11:19:15;;;;;;;;;;;;;;;;;;5015534;28;1910;-76
2022/07/25 11:21:45;;;;;;;;;;;;;;;;;;5012457;28;1797;-75
2022/07/25 11:24:11;;;;;;;;;;;;;;;;;;5011895;28;1522;-75
2022/07/25 11:26:44;;;;;;;;;;;;;;;;;;5012794;28;1404;-76
2022/07/25 11:29:17;;;;;;;;;;;;;;;;;;5012391;28;1138;-75
2022/07/25 11:31:43;;;;;;;;;;;;;;;;;;5012553;28;1828;-76
2022/07/25 11:34:09;;;;;;;;;;;;;;;;;;5012838;28;1511;-75
2022/07/25 11:36:36;;;;;;;;;;;;;;;;;;5010895;28;1518;-76
2022/07/25 11:39:03;;;;;;;;;;;;;;;;;;5012103;28;1910;-76
2022/07/25 11:41:30;;;;;;;;;;;;;;;;;;5011480;28;1844;-75
2022/07/25 11:43:56;;;;;;;;;;;;;;;;;;5013088;28;1395;-75
2022/07/25 11:46:22;;;;;;;;;;;;;;;;;;5013167;28;1099;-75
2022/07/25 11:48:48;;;;;;;;;;;;;;;;;;5011412;28;1185;-75
2022/07/25 11:51:15;;;;;;;;;;;;;;;;;;5012219;28;1781;-79
2022/07/25 11:53:42;;;;;;;;;;;;;;;;;;5011034;28;1484;-75
2022/07/25 11:56:17;;;;;;;;;;;;;;;;;;5012043;28;1614;-76
2022/07/25 11:58:43;;;;;;;;;;;;;;;;;;5011616;28;1914;-75
2022/07/25 12:01:14;;;;;;;;;;;;;;;;;;5012114;28;1492;-75
2022/07/25 12:03:40;;;;;;;;;;;;;;;;;;5011961;28;1480;-75
2022/07/25 12:06:07;;;;;;;;;;;;;;;;;;5012629;28;1171;-74
2022/07/25 12:08:36;;;;;;;;;;;;;;;;;;5011367;28;1821;-74
2022/07/25 12:11:02;;;;;;;;;;;;;;;;;;5012507;28;1385;-74
2022/07/25 12:13:31;;;;;;;;;;;;;;;;;;5012552;28;941;-74
2022/07/25 12:15:57;;;;;;;;;;;;;;;;;;5011502;28;1268;-75
2022/07/25 12:18:23;;;;;;;;;;;;;;;;;;5011699;28;1348;-75
2022/07/25 12:20:50;;;;;;;;;;;;;;;;;;5011318;28;1906;-74
2022/07/25 12:23:16;;;;;;;;;;;;;;;;;;5009434;28;1785;-75
2022/07/25 12:25:43;;;;;;;;;;;;;;;;;;5011519;28;1590;-74
2022/07/25 12:28:10;;;;;;;;;;;;;;;;;;5006320;28;1643;-74
2022/07/25 12:30:38;;;;;;;;;;;;;;;;;;5010447;28;1440;-75
2022/07/25 12:33:04;;;;;;;;;;;;;;;;;;5010685;28;1428;-74
2022/07/25 12:35:30;;;;;;;;;;;;;;;;;;5012458;28;1245;-74
2022/07/25 12:37:56;;;;;;;;;;;;;;;;;;5011023;28;1559;-75
2022/07/25 12:40:22;;;;;;;;;;;;;;;;;;5011406;28;1915;-74
2022/07/25 12:42:49;;;;;;;;;;;;;;;;;;5010884;28;1769;-74
2022/07/25 12:45:16;;;;;;;;;;;;;;;;;;5012511;28;1219;-74
2022/07/25 12:47:44;;;;;;;;;;;;;;;;;;5011742;28;1076;-74
2022/07/25 12:50:10;;;;;;;;;;;;;;;;;;5011750;28;1398;-74
2022/07/25 12:52:37;;;;;;;;;;;;;;;;;;5010424;28;1825;-73
2022/07/25 12:55:03;;;;;;;;;;;;;;;;;;5010048;28;1467;-74
2022/07/25 12:57:30;;;;;;;;;;;;;;;;;;5010845;28;1690;-74
2022/07/25 12:59:56;;;;;;;;;;;;;;;;;;5010918;28;1910;-75
2022/07/25 13:02:23;;;;;;;;;;;;;;;;;;5009699;28;1623;-73
2022/07/25 13:04:50;;;;;;;;;;;;;;;;;;5011148;28;1492;-74
2022/07/25 13:07:16;;;;;;;;;;;;;;;;;;5011623;28;1194;-74
2022/07/25 13:09:42;;;;;;;;;;;;;;;;;;5009744;28;1851;-73
2022/07/25 13:12:09;;;;;;;;;;;;;;;;;;5010553;28;1337;-74
2022/07/25 13:14:35;;;;;;;;;;;;;;;;;;5009905;28;1650;-74
2022/07/25 13:17:01;;;;;;;;;;;;;;;;;;5011123;28;1330;-74
2022/07/25 13:19:27;;;;;;;;;;;;;;;;;;5011351;28;1910;-74
2022/07/25 13:21:55;;;;;;;;;;;;;;;;;;5011306;28;1052;-74
2022/07/25 13:24:22;;;;;;;;;;;;;;;;;;5010569;28;1448;-74
2022/07/25 13:26:48;;;;;;;;;;;;;;;;;;4993462;28;1559;-75
2022/07/25 13:29:14;;;;;;;;;;;;;;;;;;5010448;28;1630;-75
2022/07/25 13:31:41;;;;;;;;;;;;;;;;;;5009153;28;1543;-75
2022/07/25 13:34:07;;;;;;;;;;;;;;;;;;5008238;28;1814;-72
2022/07/25 13:36:34;;;;;;;;;;;;;;;;;;5009339;28;1693;-74
2022/07/25 13:39:02;;;;;;;;;;;;;;;;;;5011105;28;1902;-74
2022/07/25 13:41:28;;;;;;;;;;;;;;;;;;5011152;28;1326;-74
2022/07/25 13:43:54;;;;;;;;;;;;;;;;;;5011629;28;1044;-74
2022/07/25 13:46:20;;;;;;;;;;;;;;;;;;5010925;28;1848;-74
2022/07/25 13:48:46;;;;;;;;;;;;;;;;;;5011185;28;1214;-74
2022/07/25 13:51:13;;;;;;;;;;;;;;;;;;5009124;28;1789;-74
2022/07/25 13:53:39;;;;;;;;;;;;;;;;;;5010611;28;1254;-74
2022/07/25 13:56:07;;;;;;;;;;;;;;;;;;5010326;28;1115;-74
2022/07/25 13:58:33;;;;;;;;;;;;;;;;;;5003241;28;1556;-74
2022/07/25 14:00:59;;;;;;;;;;;;;;;;;;5011143;28;1974;-74
2022/07/25 14:03:26;;;;;;;;;;;;;;;;;;5009865;28;1439;-74
2022/07/25 14:05:52;;;;;;;;;;;;;;;;;;5016021;28;1129;-73
2022/07/25 14:08:18;;;;;;;;;;;;;;;;;;5029634;28;1223;-74
2022/07/25 14:10:44;;;;;;;;;;;;;;;;;;5021716;28;1333;-75
2022/07/25 14:13:12;;;;;;;;;;;;;;;;;;5043745;22;3712;-75
2022/07/25 14:15:38;;;;;;;;;;;;;;;;;;5050553;28;1061;-74
2022/07/25 14:18:04;;;;;;;;;;;;;;;;;;5050906;28;774;-74
2022/07/25 14:20:31;;;;;;;;;;;;;;;;;;5051158;28;1910;-73
2022/07/25 14:22:57;;;;;;;;;;;;;;;;;;5047932;28;1449;-73
2022/07/25 14:25:24;;;;;;;;;;;;;;;;;;5048675;28;1569;-73
2022/07/25 14:27:50;;;;;;;;;;;;;;;;;;5047529;28;1589;-73
2022/07/25 14:30:17;;;;;;;;;;;;;;;;;;5047977;28;1618;-73
2022/07/25 14:32:44;;;;;;;;;;;;;;;;;;5049134;28;1307;-73
2022/07/25 14:35:10;;;;;;;;;;;;;;;;;;5050884;28;802;-73
2022/07/25 14:37:37;;;;;;;;;;;;;;;;;;5052062;28;929;-73
2022/07/25 14:40:04;;;;;;;;;;;;;;;;;;5053507;28;1890;-73
2022/07/25 14:42:30;;;;;;;;;;;;;;;;;;5052506;28;1632;-73
2022/07/25 14:44:56;;;;;;;;;;;;;;;;;;5050925;28;1304;-73
2022/07/25 14:47:23;;;;;;;;;;;;;;;;;;5041612;28;1275;-73
2022/07/25 14:49:50;;;;;;;;;;;;;;;;;;5048363;28;1862;-72
2022/07/25 14:52:17;;;;;;;;;;;;;;;;;;5053296;28;1312;-72
2022/07/25 14:54:43;;;;;;;;;;;;;;;;;;5054332;28;984;-72
2022/07/25 14:57:10;;;;;;;;;;;;;;;;;;5053781;28;1031;-74
2022/07/25 14:59:36;;;;;;;;;;;;;;;;;;5051824;28;1910;-72
2022/07/25 15:02:02;;;;;;;;;;;;;;;;;;5053412;28;1379;-72
2022/07/25 15:04:30;;;;;;;;;;;;;;;;;;5051593;28;1749;-74
2022/07/25 15:06:56;;;;;;;;;;;;;;;;;;5058962;28;1703;-74
2022/07/25 15:09:22;;;;;;;;;;;;;;;;;;5056091;28;1612;-74
2022/07/25 15:11:48;;;;;;;;;;;;;;;;;;5054585;28;1856;-74
2022/07/25 15:14:14;;;;;;;;;;;;;;;;;;5052626;28;1435;-75
2022/07/25 15:16:41;;;;;;;;;;;;;;;;;;5053589;28;1071;-75
2022/07/25 15:19:07;;;;;;;;;;;;;;;;;;5051013;28;1755;-75
2022/07/25 15:21:34;;;;;;;;;;;;;;;;;;5052909;28;1918;-75
2022/07/25 15:24:01;;;;;;;;;;;;;;;;;;5051115;28;1586;-75
2022/07/25 15:26:27;;;;;;;;;;;;;;;;;;5051981;28;1588;-75
2022/07/25 15:28:53;;;;;;;;;;;;;;;;;;5051642;28;1582;-75
2022/07/25 15:31:22;;;;;;;;;;;;;;;;;;5033152;28;1202;-75
2022/07/25 15:33:49;;;;;;;;;;;;;;;;;;5044503;28;1471;-74
2022/07/25 15:36:15;;;;;;;;;;;;;;;;;;5052000;28;1095;-75
2022/07/25 15:38:42;;;;;;;;;;;;;;;;;;5050338;28;1794;-73
2022/07/25 15:41:09;;;;;;;;;;;;;;;;;;5052643;28;1981;-74
2022/07/25 15:43:35;;;;;;;;;;;;;;;;;;5050985;28;1479;-75
2022/07/25 15:46:01;;;;;;;;;;;;;;;;;;5052405;28;1834;-73
2022/07/25 15:48:28;;;;;;;;;;;;;;;;;;5051354;28;1556;-74
2022/07/25 15:50:54;;;;;;;;;;;;;;;;;;5052309;28;1727;-73
2022/07/25 15:53:21;;;;;;;;;;;;;;;;;;5043182;28;1759;-73
2022/07/25 15:55:48;;;;;;;;;;;;;;;;;;5051683;28;1545;-73
2022/07/25 15:58:14;;;;;;;;;;;;;;;;;;5049773;28;1569;-73
2022/07/25 16:00:41;;;;;;;;;;;;;;;;;;5052656;28;1922;-73
2022/07/25 16:03:08;;;;;;;;;;;;;;;;;;5047356;28;1608;-74
2022/07/25 16:05:34;;;;;;;;;;;;;;;;;;5051150;28;1766;-74
2022/07/25 16:08:00;;;;;;;;;;;;;;;;;;5051365;28;1177;-74
2022/07/25 16:10:27;;;;;;;;;;;;;;;;;;5052971;28;1099;-74
2022/07/25 16:12:54;;;;;;;;;;;;;;;;;;5050919;28;1411;-74
2022/07/25 16:15:20;;;;;;;;;;;;;;;;;;5052815;28;1119;-74
2022/07/25 16:17:46;;;;;;;;;;;;;;;;;;5052887;28;1059;-74
2022/07/25 16:20:13;;;;;;;;;;;;;;;;;;5052895;28;1969;-74
2022/07/25 16:22:39;;;;;;;;;;;;;;;;;;5068022;28;1351;-74
2022/07/25 16:25:06;;;;;;;;;;;;;;;;;;5053007;28;1114;-74
2022/07/25 16:27:32;;;;;;;;;;;;;;;;;;5053071;28;1062;-74
2022/07/25 16:29:59;;;;;;;;;;;;;;;;;;5053133;28;1114;-74
2022/07/25 16:32:26;;;;;;;;;;;;;;;;;;5052540;28;1288;-74
2022/07/25 16:34:52;;;;;;;;;;;;;;;;;;5049533;28;1573;-73
2022/07/25 16:37:19;;;;;;;;;;;;;;;;;;5049717;28;1452;-73
2022/07/25 16:39:45;;;;;;;;;;;;;;;;;;5048766;28;1358;-74
2022/07/25 16:42:11;;;;;;;;;;;;;;;;;;5058948;28;1977;-72
2022/07/25 16:44:37;;;;;;;;;;;;;;;;;;5050533;28;1439;-74
2022/07/25 16:47:06;;;;;;;;;;;;;;;;;;5049168;28;1347;-73
2022/07/25 16:49:32;;;;;;;;;;;;;;;;;;5053356;28;1633;-73
2022/07/25 16:51:58;;;;;;;;;;;;;;;;;;5052156;28;1470;-73
2022/07/25 16:54:24;;;;;;;;;;;;;;;;;;5050090;28;1656;-73
2022/07/25 16:56:50;;;;;;;;;;;;;;;;;;5049716;28;1441;-73
2022/07/25 16:59:17;;;;;;;;;;;;;;;;;;5048920;28;1375;-73
2022/07/25 17:01:45;;;;;;;;;;;;;;;;;;5048170;28;1892;-73
2022/07/25 17:04:12;;;;;;;;;;;;;;;;;;5047948;28;1511;-73
2022/07/25 17:06:39;;;;;;;;;;;;;;;;;;5048969;28;1469;-72